createdAt,value
2024-01-31T00:00:26.429Z,95768.69
2024-01-31T00:02:52.997Z,95770.34
2024-01-31T00:05:19.834Z,95761.66
2024-01-31T00:07:46.517Z,95772.88
2024-01-31T00:10:14.073Z,95774.63
2024-01-31T00:12:40.723Z,95773.84
2024-01-31T00:15:07.578Z,95768.88
2024-01-31T00:17:34.169Z,95775.84
2024-01-31T00:20:00.758Z,95765.16
2024-01-31T00:22:27.346Z,95762.78
2024-01-31T00:24:53.927Z,95763.78
2024-01-31T00:27:20.401Z,95766.38
2024-01-31T00:29:46.885Z,95776.91
2024-01-31T00:32:13.384Z,95770.81
2024-01-31T00:34:40.069Z,95766.03
2024-01-31T00:37:06.689Z,95768.41
2024-01-31T00:39:34.102Z,95767.19
2024-01-31T00:42:00.871Z,95772.34
2024-01-31T00:44:27.875Z,95764.72
2024-01-31T00:46:54.599Z,95767.19
2024-01-31T00:49:25.499Z,95770.94
2024-01-31T00:51:53.376Z,95762.88
2024-01-31T00:54:20.081Z,95765.97
2024-01-31T00:56:46.553Z,95762.84
2024-01-31T00:59:13.084Z,95770.53
2024-01-31T01:01:39.782Z,95774.28
2024-01-31T01:04:08.878Z,95766.84
2024-01-31T01:06:35.908Z,95771.56
2024-01-31T01:09:02.530Z,95779.88
2024-01-31T01:11:32.290Z,95779.88
2024-01-31T01:13:59.149Z,95779.56
2024-01-31T01:16:25.719Z,95782.34
2024-01-31T01:18:52.259Z,95779.44
2024-01-31T01:21:18.795Z,95772.88
2024-01-31T01:23:45.318Z,95774.13
2024-01-31T01:26:13.217Z,95779.28
2024-01-31T01:28:39.886Z,95782.31
2024-01-31T01:31:07.136Z,95777.81
2024-01-31T01:33:33.897Z,95781.41
2024-01-31T01:36:00.614Z,95782.84
2024-01-31T01:38:27.142Z,95783.84
2024-01-31T01:40:53.728Z,95774.72
2024-01-31T01:43:21.713Z,95783.50
2024-01-31T01:45:49.134Z,95780.66
2024-01-31T01:48:19.881Z,95778.47
2024-01-31T01:50:46.738Z,95781.41
2024-01-31T01:53:13.567Z,95775.22
2024-01-31T01:55:42.837Z,95780.53
2024-01-31T01:58:09.986Z,95766.94
2024-01-31T02:00:37.120Z,95770.88
2024-01-31T02:03:05.384Z,95769.00
2024-01-31T02:05:33.195Z,95768.44
2024-01-31T02:07:59.919Z,95768.44
2024-01-31T02:10:26.921Z,95769.66
2024-01-31T02:12:53.581Z,95766.28
2024-01-31T02:15:20.101Z,95768.88
2024-01-31T02:17:46.663Z,95765.28
2024-01-31T02:20:17.011Z,95768.63
2024-01-31T02:22:46.680Z,95765.84
2024-01-31T02:25:14.958Z,95770.56
2024-01-31T02:27:41.905Z,95753.03
2024-01-31T02:30:09.102Z,95762.25
2024-01-31T02:32:35.714Z,95767.09
2024-01-31T02:35:02.332Z,95764.66
2024-01-31T02:37:28.927Z,95769.59
2024-01-31T02:39:55.490Z,95760.06
2024-01-31T02:42:22.133Z,95748.47
2024-01-31T02:44:49.718Z,95751.97
2024-01-31T02:47:16.258Z,95759.28
2024-01-31T02:49:42.930Z,95758.72
2024-01-31T02:52:09.549Z,95760.06
2024-01-31T02:54:36.240Z,95762.44
2024-01-31T02:57:02.823Z,95759.59
2024-01-31T02:59:29.320Z,95752.19
2024-01-31T03:01:56.191Z,95757.72
2024-01-31T03:04:22.775Z,95757.25
2024-01-31T03:08:11.412Z,95754.88
2024-01-31T03:10:38.059Z,95738.13
2024-01-31T03:13:04.795Z,95752.19
2024-01-31T03:15:31.310Z,95750.97
2024-01-31T03:17:58.945Z,95744.34
2024-01-31T03:20:25.475Z,95744.44
2024-01-31T03:22:52.102Z,95736.22
2024-01-31T03:25:18.603Z,95740.16
2024-01-31T03:27:45.222Z,95746.44
2024-01-31T03:30:12.326Z,95744.44
2024-01-31T03:32:39.350Z,95743.97
2024-01-31T03:35:06.559Z,95748.69
2024-01-31T03:37:33.533Z,95750.81
2024-01-31T03:40:00.608Z,95749.38
2024-01-31T03:42:27.377Z,95740.81
2024-01-31T03:44:53.843Z,95744.19
2024-01-31T03:47:20.343Z,95741.38
2024-01-31T03:49:48.272Z,95741.59
2024-01-31T03:52:15.528Z,95744.75
2024-01-31T03:54:42.188Z,95745.53
2024-01-31T03:57:08.706Z,95741.03
2024-01-31T03:59:38.054Z,95734.28
2024-01-31T04:02:06.239Z,95741.81
2024-01-31T04:04:32.999Z,95726.06
2024-01-31T04:06:59.550Z,95726.16
2024-01-31T04:09:26.047Z,95726.25
2024-01-31T04:11:53.032Z,95716.16
2024-01-31T04:14:19.518Z,95731.53
2024-01-31T04:16:48.614Z,95729.97
2024-01-31T04:19:15.681Z,95733.03
2024-01-31T04:21:42.189Z,95730.88
2024-01-31T04:24:08.843Z,95737.06
2024-01-31T04:26:43.227Z,95732.44
2024-01-31T04:29:10.195Z,95736.97
2024-01-31T04:31:36.857Z,95738.31
2024-01-31T04:34:06.150Z,95739.09
2024-01-31T04:36:33.284Z,95738.31
2024-01-31T04:39:01.479Z,95740.09
2024-01-31T04:41:28.924Z,95735.63
2024-01-31T04:43:55.432Z,95743.28
2024-01-31T04:46:21.993Z,95741.03
2024-01-31T04:48:49.919Z,95745.78
2024-01-31T04:51:16.673Z,95749.81
2024-01-31T04:53:43.211Z,95756.69
2024-01-31T04:56:09.939Z,95758.63
2024-01-31T04:58:37.109Z,95766.50
2024-01-31T05:01:05.049Z,95752.75
2024-01-31T05:03:31.828Z,95765.38
2024-01-31T05:05:58.447Z,95767.03
2024-01-31T05:08:28.885Z,95769.53
2024-01-31T05:10:56.154Z,95765.59
2024-01-31T05:13:23.101Z,95762.84
2024-01-31T05:15:49.730Z,95772.06
2024-01-31T05:18:16.312Z,95777.47
2024-01-31T05:20:42.828Z,95776.09
2024-01-31T05:23:09.425Z,95774.19
2024-01-31T05:25:35.952Z,95787.03
2024-01-31T05:28:02.543Z,95783.44
2024-01-31T05:30:29.208Z,95785.22
2024-01-31T05:32:55.881Z,95781.19
2024-01-31T05:35:22.404Z,95784.44
2024-01-31T05:37:49.049Z,95791.88
2024-01-31T05:40:17.953Z,95784.03
2024-01-31T05:42:46.080Z,95792.81
2024-01-31T05:45:12.932Z,95787.63
2024-01-31T05:47:39.518Z,95799.13
2024-01-31T05:50:06.664Z,95794.28
2024-01-31T05:52:33.410Z,95790.59
2024-01-31T05:54:59.949Z,95792.72
2024-01-31T05:57:26.468Z,95800.59
2024-01-31T05:59:52.974Z,95805.09
2024-01-31T06:02:20.432Z,95797.91
2024-01-31T06:04:47.023Z,95808.59
2024-01-31T06:07:13.763Z,95807.16
2024-01-31T06:09:40.708Z,95800.16
2024-01-31T06:12:07.780Z,95803.31
2024-01-31T06:14:37.464Z,95807.50
2024-01-31T06:17:04.909Z,95806.00
2024-01-31T06:21:58.085Z,95806.34
2024-01-31T06:24:25.367Z,95806.91
2024-01-31T06:26:51.878Z,95806.34
2024-01-31T06:29:19.699Z,95804.31
2024-01-31T06:31:50.222Z,95806.47
2024-01-31T06:34:18.051Z,95801.84
2024-01-31T06:36:46.184Z,95815.34
2024-01-31T06:39:12.758Z,95809.41
2024-01-31T06:41:39.483Z,95816.72
2024-01-31T06:44:06.086Z,95819.63
2024-01-31T06:46:32.616Z,95814.78
2024-01-31T06:49:00.454Z,95814.34
2024-01-31T06:51:27.313Z,95815.13
2024-01-31T06:53:53.926Z,95815.69
2024-01-31T06:56:20.820Z,95813.88
2024-01-31T06:58:49.146Z,95820.16
2024-01-31T07:01:19.393Z,95816.34
2024-01-31T07:03:46.542Z,95811.72
2024-01-31T07:06:13.718Z,95811.72
2024-01-31T07:08:43.096Z,95809.69
2024-01-31T07:11:10.130Z,95804.50
2024-01-31T07:13:37.240Z,95821.16
2024-01-31T07:16:11.029Z,95821.50
2024-01-31T07:18:41.841Z,95821.50
2024-01-31T07:21:13.265Z,95819.72
2024-01-31T07:23:40.759Z,95821.28
2024-01-31T07:26:07.350Z,95826.25
2024-01-31T07:28:40.343Z,95821.84
2024-01-31T07:31:07.895Z,95826.00
2024-01-31T07:33:35.418Z,95821.06
2024-01-31T07:36:03.579Z,95828.13
2024-01-31T07:38:30.204Z,95824.78
2024-01-31T07:40:56.774Z,95830.28
2024-01-31T07:43:23.499Z,95824.09
2024-01-31T07:45:50.009Z,95820.50
2024-01-31T07:48:16.562Z,95811.47
2024-01-31T07:50:43.053Z,95809.63
2024-01-31T07:53:09.622Z,95816.75
2024-01-31T07:55:36.380Z,95816.50
2024-01-31T07:58:04.382Z,95815.03
2024-01-31T08:00:31.058Z,95816.94
2024-01-31T08:02:57.613Z,95820.88
2024-01-31T08:05:24.087Z,95806.47
2024-01-31T08:07:50.725Z,95812.09
2024-01-31T08:10:17.218Z,95810.13
2024-01-31T08:12:44.303Z,95804.41
2024-01-31T08:15:11.078Z,95807.06
2024-01-31T08:17:37.749Z,95799.53
2024-01-31T08:20:08.091Z,95800.41
2024-01-31T08:22:37.787Z,95800.19
2024-01-31T08:25:06.898Z,95793.75
2024-01-31T08:27:33.493Z,95800.06
2024-01-31T08:30:00.005Z,95796.41
2024-01-31T08:32:27.113Z,95791.81
2024-01-31T08:34:53.677Z,95787.97
2024-01-31T08:37:20.283Z,95793.44
2024-01-31T08:39:46.864Z,95792.44
2024-01-31T08:42:13.427Z,95791.97
2024-01-31T08:44:39.952Z,95788.38
2024-01-31T08:47:18.025Z,95782.13
2024-01-31T08:49:46.317Z,95786.31
2024-01-31T08:52:14.492Z,95793.88
2024-01-31T08:54:41.296Z,95784.53
2024-01-31T08:57:07.895Z,95790.50
2024-01-31T08:59:34.376Z,95786.06
2024-01-31T09:02:00.957Z,95785.06
2024-01-31T09:04:27.605Z,95782.22
2024-01-31T09:06:54.215Z,95788.00
2024-01-31T09:09:20.754Z,95784.81
2024-01-31T09:11:47.285Z,95790.50
2024-01-31T09:14:13.988Z,95794.56
2024-01-31T09:16:40.620Z,95787.03
2024-01-31T09:19:07.345Z,95783.06
2024-01-31T09:21:33.899Z,95789.84
2024-01-31T09:24:00.444Z,95784.75
2024-01-31T09:26:26.950Z,95780.75
2024-01-31T09:28:53.786Z,95789.75
2024-01-31T09:31:24.537Z,95793.22
2024-01-31T09:33:52.262Z,95795.91
2024-01-31T09:36:19.142Z,95801.44
2024-01-31T09:38:48.295Z,95799.38
2024-01-31T09:41:16.644Z,95798.13
2024-01-31T09:43:44.068Z,95798.66
2024-01-31T09:46:10.939Z,95795.59
2024-01-31T09:48:38.440Z,95788.13
2024-01-31T09:51:05.710Z,95792.59
2024-01-31T09:53:35.273Z,95789.28
2024-01-31T09:56:01.916Z,95788.81
2024-01-31T09:58:28.941Z,95788.88
2024-01-31T10:01:00.513Z,95780.56
2024-01-31T10:03:28.540Z,95789.28
2024-01-31T10:05:55.069Z,95786.47
2024-01-31T10:08:21.996Z,95786.28
2024-01-31T10:10:48.835Z,95786.91
2024-01-31T10:13:15.511Z,95781.78
2024-01-31T10:15:42.130Z,95777.44
2024-01-31T10:18:08.688Z,95778.03
2024-01-31T10:20:35.211Z,95763.88
2024-01-31T10:23:02.493Z,95771.53
2024-01-31T10:25:29.221Z,95764.59
2024-01-31T10:27:56.095Z,95772.69
2024-01-31T10:30:22.663Z,95768.28
2024-01-31T10:32:50.160Z,95769.06
2024-01-31T10:37:55.982Z,95757.09
2024-01-31T10:40:25.079Z,95762.28
2024-01-31T10:42:53.718Z,95758.19
2024-01-31T10:45:20.861Z,95755.34
2024-01-31T10:47:47.637Z,95752.72
2024-01-31T10:50:14.293Z,95747.31
2024-01-31T10:52:42.327Z,95744.19
2024-01-31T10:55:10.657Z,95739.06
2024-01-31T10:57:40.573Z,95736.47
2024-01-31T11:00:30.388Z,95739.59
2024-01-31T11:02:58.532Z,95746.94
2024-01-31T11:05:33.163Z,95731.91
2024-01-31T11:08:00.059Z,95731.72
2024-01-31T11:10:29.203Z,95735.16
2024-01-31T11:13:01.575Z,95740.91
2024-01-31T11:15:29.682Z,95739.31
2024-01-31T11:18:13.460Z,95726.31
2024-01-31T11:20:48.095Z,95731.28
2024-01-31T11:23:20.886Z,95732.88
2024-01-31T11:25:47.678Z,95727.66
2024-01-31T11:28:16.227Z,95715.41
2024-01-31T11:30:43.393Z,95714.91
2024-01-31T11:33:10.460Z,95719.41
2024-01-31T11:35:37.151Z,95714.47
2024-01-31T11:38:04.533Z,95715.56
2024-01-31T11:40:31.728Z,95719.22
2024-01-31T11:42:58.362Z,95708.81
2024-01-31T11:45:28.551Z,95699.00
2024-01-31T11:47:55.894Z,95689.03
2024-01-31T11:50:23.683Z,95694.84
2024-01-31T11:52:52.060Z,95688.34
2024-01-31T11:55:27.791Z,95683.94
2024-01-31T11:57:54.698Z,95697.56
2024-01-31T12:00:22.109Z,95686.63
2024-01-31T12:02:49.260Z,95686.38
2024-01-31T12:05:16.075Z,95687.97
2024-01-31T12:07:44.554Z,95688.22
2024-01-31T12:10:11.786Z,95697.09
2024-01-31T12:12:42.909Z,95692.66
2024-01-31T12:15:17.029Z,95685.88
2024-01-31T12:17:45.138Z,95686.09
2024-01-31T12:20:12.588Z,95684.53
2024-01-31T12:22:41.116Z,95685.28
2024-01-31T12:25:08.491Z,95682.19
2024-01-31T12:27:35.462Z,95677.00
2024-01-31T12:30:02.292Z,95673.41
2024-01-31T12:32:28.984Z,95663.81
2024-01-31T12:34:56.273Z,95668.31
2024-01-31T12:37:23.227Z,95660.22
2024-01-31T12:39:49.839Z,95663.63
2024-01-31T12:42:16.803Z,95669.63
2024-01-31T12:44:43.999Z,95679.53
2024-01-31T12:47:11.342Z,95664.16
2024-01-31T12:49:42.284Z,95660.75
2024-01-31T12:52:09.268Z,95663.13
2024-01-31T12:54:35.983Z,95667.53
2024-01-31T12:57:02.619Z,95669.63
2024-01-31T12:59:29.332Z,95670.91
2024-01-31T13:01:56.066Z,95658.13
2024-01-31T13:04:26.324Z,95663.81
2024-01-31T13:06:54.899Z,95665.59
2024-01-31T13:09:22.075Z,95664.06
2024-01-31T13:11:48.756Z,95659.34
2024-01-31T13:14:16.176Z,95656.44
2024-01-31T13:16:51.026Z,95663.19
2024-01-31T13:19:25.975Z,95659.03
2024-01-31T13:21:53.955Z,95656.41
2024-01-31T13:24:20.954Z,95656.91
2024-01-31T13:26:47.690Z,95662.34
2024-01-31T13:29:14.783Z,95662.13
2024-01-31T13:31:41.358Z,95668.84
2024-01-31T13:34:08.102Z,95664.94
2024-01-31T13:36:34.696Z,95667.00
2024-01-31T13:39:01.328Z,95662.28
2024-01-31T13:41:28.596Z,95660.47
2024-01-31T13:43:55.235Z,95653.38
2024-01-31T13:46:21.752Z,95653.38
2024-01-31T13:48:48.344Z,95648.47
2024-01-31T13:51:16.613Z,95651.13
2024-01-31T13:53:43.257Z,95653.81
2024-01-31T13:56:09.793Z,95646.59
2024-01-31T13:58:36.729Z,95644.59
2024-01-31T14:01:03.349Z,95644.94
2024-01-31T14:03:29.974Z,95635.59
2024-01-31T14:05:56.500Z,95641.59
2024-01-31T14:08:23.090Z,95641.06
2024-01-31T14:10:49.660Z,95637.44
2024-01-31T14:13:16.310Z,95631.72
2024-01-31T14:15:42.828Z,95626.50
2024-01-31T14:18:13.288Z,95630.16
2024-01-31T14:20:41.541Z,95630.66
2024-01-31T14:23:23.559Z,95625.41
2024-01-31T14:25:54.702Z,95614.19
2024-01-31T14:28:21.266Z,95612.09
2024-01-31T14:30:47.834Z,95609.22
2024-01-31T14:33:14.497Z,95610.22
2024-01-31T14:35:41.283Z,95597.97
2024-01-31T14:38:07.893Z,95605.03
2024-01-31T14:40:34.399Z,95605.81
2024-01-31T14:43:01.022Z,95602.97
2024-01-31T14:45:27.683Z,95605.16
2024-01-31T14:47:54.477Z,95599.47
2024-01-31T14:50:21.270Z,95595.06
2024-01-31T14:52:47.778Z,95596.22
2024-01-31T14:55:14.476Z,95592.81
2024-01-31T14:57:41.005Z,95588.38
2024-01-31T15:00:09.195Z,95586.88
2024-01-31T15:02:35.960Z,95588.19
2024-01-31T15:05:02.721Z,95596.53
2024-01-31T15:07:30.944Z,95583.50
2024-01-31T15:09:57.962Z,95579.81
2024-01-31T15:12:24.664Z,95588.94
2024-01-31T15:14:51.521Z,95581.84
2024-01-31T15:17:18.235Z,95574.06
2024-01-31T15:19:49.669Z,95571.19
2024-01-31T15:22:17.071Z,95580.84
2024-01-31T15:24:44.100Z,95576.56
2024-01-31T15:27:10.924Z,95580.25
2024-01-31T15:29:37.749Z,95577.78
2024-01-31T15:32:04.602Z,95576.84
2024-01-31T15:34:31.355Z,95583.22
2024-01-31T15:36:59.998Z,95579.09
2024-01-31T15:39:26.504Z,95585.81
2024-01-31T15:41:53.116Z,95588.09
2024-01-31T15:44:22.540Z,95593.88
2024-01-31T15:46:50.245Z,95585.97
2024-01-31T15:49:16.777Z,95586.06
2024-01-31T15:51:47.295Z,95585.03
2024-01-31T15:54:15.665Z,95582.91
2024-01-31T15:56:42.322Z,95586.53
2024-01-31T15:59:08.829Z,95569.50
2024-01-31T16:01:35.378Z,95572.28
2024-01-31T16:04:02.151Z,95566.72
2024-01-31T16:06:28.932Z,95563.69
2024-01-31T16:08:57.734Z,95568.16
2024-01-31T16:11:26.254Z,95584.19
2024-01-31T16:13:52.854Z,95584.53
2024-01-31T16:16:19.512Z,95587.00
2024-01-31T16:18:46.513Z,95588.44
2024-01-31T16:21:13.934Z,95597.63
2024-01-31T16:23:41.125Z,95607.63
2024-01-31T16:26:08.813Z,95607.75
2024-01-31T16:28:35.489Z,95600.88
2024-01-31T16:31:03.891Z,95603.56
2024-01-31T16:33:30.919Z,95595.41
2024-01-31T16:35:59.737Z,95597.94
2024-01-31T16:38:26.784Z,95610.38
2024-01-31T16:40:53.389Z,95599.69
2024-01-31T16:43:20.130Z,95606.63
2024-01-31T16:45:46.694Z,95600.28
2024-01-31T16:48:13.594Z,95613.66
2024-01-31T16:50:40.273Z,95605.22
2024-01-31T16:53:06.823Z,95609.09
2024-01-31T16:55:33.410Z,95606.16
2024-01-31T16:57:59.916Z,95609.00
2024-01-31T17:00:26.906Z,95615.78
2024-01-31T17:02:54.353Z,95611.34
2024-01-31T17:05:22.186Z,95612.16
2024-01-31T17:07:48.718Z,95618.91
2024-01-31T17:10:15.355Z,95625.06
2024-01-31T17:12:44.356Z,95615.88
2024-01-31T17:15:11.626Z,95619.41
2024-01-31T17:17:38.365Z,95611.53
2024-01-31T17:20:05.669Z,95616.41
2024-01-31T17:22:32.425Z,95614.53
2024-01-31T17:24:58.978Z,95611.06
2024-01-31T17:27:25.456Z,95605.34
2024-01-31T17:29:52.028Z,95607.69
2024-01-31T17:32:18.593Z,95608.22
2024-01-31T17:34:46.158Z,95618.06
2024-01-31T17:37:12.806Z,95620.66
2024-01-31T17:39:39.291Z,95619.06
2024-01-31T17:42:06.557Z,95616.41
2024-01-31T17:44:35.288Z,95616.88
2024-01-31T17:47:02.566Z,95607.44
2024-01-31T17:49:29.183Z,95612.31
2024-01-31T17:51:55.938Z,95610.50
2024-01-31T17:54:22.654Z,95620.38
2024-01-31T17:56:51.772Z,95613.41
2024-01-31T17:59:18.514Z,95599.91
2024-01-31T18:01:45.060Z,95599.09
2024-01-31T18:04:11.848Z,95596.97
2024-01-31T18:06:40.564Z,95601.88
2024-01-31T18:09:11.281Z,95594.47
2024-01-31T18:11:38.666Z,95597.28
2024-01-31T18:14:05.295Z,95592.81
2024-01-31T18:16:31.929Z,95600.00
2024-01-31T18:19:03.601Z,95603.09
2024-01-31T18:21:36.783Z,95597.91
2024-01-31T18:24:04.382Z,95596.66
2024-01-31T18:26:31.384Z,95594.06
2024-01-31T18:28:59.165Z,95583.84
2024-01-31T18:31:27.226Z,95583.97
2024-01-31T18:33:55.004Z,95576.34
2024-01-31T18:36:22.286Z,95573.91
2024-01-31T18:38:48.970Z,95570.50
2024-01-31T18:41:17.231Z,95572.81
2024-01-31T18:43:43.942Z,95573.47
2024-01-31T18:46:10.493Z,95574.97
2024-01-31T18:48:37.294Z,95571.25
2024-01-31T18:51:04.370Z,95566.41
2024-01-31T18:53:30.950Z,95565.41
2024-01-31T18:55:57.496Z,95565.63
2024-01-31T18:58:25.952Z,95560.69
2024-01-31T19:00:53.664Z,95560.72
2024-01-31T19:03:20.313Z,95558.16
2024-01-31T19:05:47.058Z,95557.72
2024-01-31T19:08:13.768Z,95553.16
2024-01-31T19:10:40.927Z,95552.28
2024-01-31T19:13:07.427Z,95550.00
2024-01-31T19:15:35.330Z,95535.59
2024-01-31T19:18:04.792Z,95539.06
2024-01-31T19:20:31.356Z,95539.72
2024-01-31T19:22:57.966Z,95536.44
2024-01-31T19:25:26.650Z,95528.97
2024-01-31T19:27:55.816Z,95525.63
2024-01-31T19:30:23.107Z,95520.53
2024-01-31T19:32:49.916Z,95508.16
2024-01-31T19:35:17.087Z,95508.47
2024-01-31T19:37:44.937Z,95502.25
2024-01-31T19:40:11.853Z,95499.13
2024-01-31T19:42:38.321Z,95500.72
2024-01-31T19:45:05.420Z,95497.88
2024-01-31T19:47:31.995Z,95504.63
2024-01-31T19:49:58.624Z,95504.63
2024-01-31T19:52:25.208Z,95506.69
2024-01-31T19:54:51.798Z,95501.97
2024-01-31T19:57:18.318Z,95497.25
2024-01-31T19:59:44.825Z,95497.25
2024-01-31T20:02:11.337Z,95498.81
2024-01-31T20:04:38.794Z,95500.16
2024-01-31T20:07:07.751Z,95503.50
2024-01-31T20:09:34.298Z,95505.09
2024-01-31T20:12:00.868Z,95496.31
2024-01-31T20:14:27.413Z,95488.44
2024-01-31T20:16:54.538Z,95491.34
2024-01-31T20:19:21.283Z,95488.44
2024-01-31T20:21:47.911Z,95491.91
2024-01-31T20:24:14.547Z,95487.53
2024-01-31T20:26:41.133Z,95485.50
2024-01-31T20:29:10.479Z,95487.59
2024-01-31T20:31:37.720Z,95481.97
2024-01-31T20:34:05.582Z,95478.91
2024-01-31T20:36:32.225Z,95486.00
2024-01-31T20:38:58.747Z,95480.91
2024-01-31T20:41:27.584Z,95483.78
2024-01-31T20:43:54.386Z,95485.69
2024-01-31T20:46:21.526Z,95485.75
2024-01-31T20:48:49.258Z,95476.28
2024-01-31T20:51:16.642Z,95470.06
2024-01-31T20:53:43.761Z,95486.16
2024-01-31T20:56:11.072Z,95476.75
2024-01-31T20:58:39.139Z,95473.69
2024-01-31T21:01:09.186Z,95470.84
2024-01-31T21:03:37.140Z,95467.78
2024-01-31T21:06:05.562Z,95463.38
2024-01-31T21:08:32.392Z,95462.44
2024-01-31T21:10:59.026Z,95466.34
2024-01-31T21:13:25.715Z,95463.03
2024-01-31T21:15:52.201Z,95461.31
2024-01-31T21:18:19.050Z,95463.44
2024-01-31T21:20:45.639Z,95461.94
2024-01-31T21:23:12.247Z,95455.78
2024-01-31T21:25:38.752Z,95456.09
2024-01-31T21:28:05.671Z,95456.16
2024-01-31T21:30:32.172Z,95447.91
2024-01-31T21:32:58.836Z,95450.53
2024-01-31T21:35:25.448Z,95454.72
2024-01-31T21:37:52.329Z,95456.84
2024-01-31T21:40:18.883Z,95449.06
2024-01-31T21:42:45.504Z,95459.44
2024-01-31T21:45:15.229Z,95459.19
2024-01-31T21:47:41.970Z,95444.88
2024-01-31T21:50:09.099Z,95443.34
2024-01-31T21:52:35.649Z,95445.66
2024-01-31T21:55:02.134Z,95442.06
2024-01-31T21:57:28.634Z,95439.47
2024-01-31T21:59:58.232Z,95437.88
2024-01-31T22:02:25.971Z,95435.84
2024-01-31T22:04:53.581Z,95431.69
2024-01-31T22:07:20.738Z,95426.03
2024-01-31T22:09:48.590Z,95420.59
2024-01-31T22:12:16.126Z,95414.38
2024-01-31T22:14:42.961Z,95413.91
2024-01-31T22:17:10.256Z,95398.59
2024-01-31T22:19:40.664Z,95398.69
2024-01-31T22:22:10.055Z,95392.44
2024-01-31T22:24:36.591Z,95394.03
2024-01-31T22:27:03.455Z,95393.56
2024-01-31T22:29:30.237Z,95390.97
2024-01-31T22:31:57.215Z,95394.09
2024-01-31T22:34:24.244Z,95389.47
2024-01-31T22:36:50.916Z,95379.06
2024-01-31T22:39:19.045Z,95377.00
2024-01-31T22:41:49.288Z,95373.41
2024-01-31T22:44:15.891Z,95376.53
2024-01-31T22:46:42.626Z,95370.56
2024-01-31T22:49:13.651Z,95368.81
2024-01-31T22:51:41.008Z,95358.44
2024-01-31T22:54:07.711Z,95361.56
2024-01-31T22:56:35.062Z,95366.50
2024-01-31T22:59:01.733Z,95367.06
2024-01-31T23:01:28.356Z,95363.94
2024-01-31T23:03:55.060Z,95351.75
2024-01-31T23:06:21.996Z,95356.44
2024-01-31T23:08:49.042Z,95364.78
2024-01-31T23:11:16.453Z,95351.31
2024-01-31T23:13:43.140Z,95348.47
2024-01-31T23:16:10.229Z,95350.09
2024-01-31T23:18:37.019Z,95350.63
2024-01-31T23:21:06.988Z,95348.06
2024-01-31T23:23:33.833Z,95350.41
2024-01-31T23:26:00.530Z,95348.34
2024-01-31T23:28:27.452Z,95345.78
2024-01-31T23:30:54.010Z,95344.25
2024-01-31T23:33:20.718Z,95348.16
2024-01-31T23:35:47.377Z,95333.38
2024-01-31T23:38:13.984Z,95364.56
2024-01-31T23:40:40.487Z,95356.28
2024-01-31T23:43:07.110Z,95349.06
2024-01-31T23:45:35.172Z,95348.78
2024-01-31T23:48:01.827Z,95343.34
2024-01-31T23:50:28.747Z,95333.50
2024-01-31T23:52:55.340Z,95329.31
2024-01-31T23:55:21.894Z,95337.91
2024-01-31T23:57:48.486Z,95327.78
